Atlantida Azul — CSYG2 — position and weather

sailwx.info

Track history (hours):
 
Tides and Currents Weather Stations Pressure Air Temp Water Temp Dewpoint Dewpoint Depression Visibility Wind Speed Wind Dir Waves Ship Positions

Atlantida Azul

Last reported at 2016-Jun-28 09:30 UTC. Time now 2016-Jun-28 09:44 UTC.
Position N 37°56' W 008°51'.

Length 16 m.

Type: Pilot. MMSI: 263672880.

Date/timePositionNaut miles runAvg speedWind from/ knotsBaromVisibWave heightAir tempDewpointWater temp
2016-Jun-28 09:30N 37°56' W 008°51'0 0.1
2016-Jun-28 04:31N 37°56' W 008°51'0 0.3
2016-Jun-28 03:32N 37°56' W 008°51'0 0.0
2016-Jun-28 01:19N 37°56' W 008°51'0 0.0
2016-Jun-28 00:25N 37°56' W 008°51'2 0.6
2016-Jun-27 20:33N 37°54' W 008°52'2 2.3
2016-Jun-27 19:33N 37°56' W 008°52'1 0.3
2016-Jun-27 17:30N 37°56' W 008°51'2 2.0
2016-Jun-27 16:32N 37°54' W 008°50'2 0.9
2016-Jun-27 14:07N 37°56' W 008°51'0 0.1
2016-Jun-27 10:33N 37°56' W 008°51'0 0.2
2016-Jun-27 09:14N 37°56' W 008°51'0 0.0
2016-Jun-27 08:24N 37°56' W 008°51'0 0.0
2016-Jun-26 22:17N 37°56' W 008°51'0 0.1
2016-Jun-26 20:33N 37°56' W 008°51'0 0.4
2016-Jun-26 19:32N 37°56' W 008°51'2 0.3
2016-Jun-26 11:32N 37°54' W 008°50'3 0.9
2016-Jun-26 08:14N 37°56' W 008°52'1 2.1
2016-Jun-26 07:33N 37°55' W 008°51'0 0.1
2016-Jun-26 02:33N 37°55' W 008°51'1 0.2
2016-Jun-25 20:04N 37°56' W 008°51'0 0.6
2016-Jun-25 19:33N 37°56' W 008°51'0 0.0
2016-Jun-25 11:19N 37°56' W 008°51'0 0.0
2016-Jun-25 10:33N 37°56' W 008°51'0 0.1
2016-Jun-25 02:33N 37°56' W 008°51'1 0.6
2016-Jun-25 01:32N 37°55' W 008°50'1 0.9
2016-Jun-25 00:31N 37°56' W 008°51'0 0.0
2016-Jun-24 17:05N 37°56' W 008°51'0 0.0
2016-Jun-24 10:21N 37°56' W 008°51'0 0.0
2016-Jun-23 16:30N 37°56' W 008°51'1 0.1
2016-Jun-23 01:04N 37°56' W 008°50'1 0.1
2016-Jun-22 12:27N 37°55' W 008°52'1 0.1
2016-Jun-21 22:08N 37°57' W 008°52'1 1.7
2016-Jun-21 21:33N 37°57' W 008°53'3 2.7
2016-Jun-21 20:32N 37°55' W 008°50'1 0.4
2016-Jun-21 17:31N 37°56' W 008°51'0 0.0
2016-Jun-21 13:19N 37°56' W 008°51'2 2.2
2016-Jun-21 12:32N 37°57' W 008°53'2 2.0
2016-Jun-21 11:33N 37°56' W 008°51'0 0.0
2016-Jun-20 22:33N 37°56' W 008°51'1 1.2
2016-Jun-20 21:33N 37°56' W 008°52'1 0.4
2016-Jun-20 18:32N 37°56' W 008°51'0 0.1
2016-Jun-20 16:19N 37°56' W 008°51'0 0.0
2016-Jun-20 15:32N 37°56' W 008°51'1 1.4
2016-Jun-20 14:31N 37°57' W 008°52'1 0.6
2016-Jun-20 12:04N 37°56' W 008°51'2 3.8
2016-Jun-20 11:33N 37°55' W 008°53'2 1.8
2016-Jun-20 10:31N 37°56' W 008°51'0 0.0
2016-Jun-20 04:18N 37°56' W 008°51'1 0.2
2016-Jun-20 01:06N 37°56' W 008°51'1 1.4
2016-Jun-20 00:33N 37°56' W 008°52'1 0.5
2016-Jun-19 23:33N 37°56' W 008°52'1 0.6
2016-Jun-19 22:33N 37°56' W 008°51'0 0.3
2016-Jun-19 21:33N 37°56' W 008°51'2 1.6
2016-Jun-19 20:32N 37°57' W 008°53'0 0.2
2016-Jun-19 18:33N 37°57' W 008°53'0 0.1
2016-Jun-19 17:32N 37°57' W 008°53'2 1.3
2016-Jun-19 16:11N 37°56' W 008°51'0 0.0
2016-Jun-19 11:20N 37°56' W 008°51'0 0.0
2016-Jun-19 10:33N 37°56' W 008°51'0 0.2
2016-Jun-19 09:30N 37°56' W 008°51'1 0.2
2016-Jun-19 03:33N 37°55' W 008°51'1 0.3
2016-Jun-18 23:33N 37°56' W 008°51'0 0.3
2016-Jun-18 22:33N 37°56' W 008°51'0 0.0
2016-Jun-18 21:32N 37°56' W 008°51'3 3.1
2016-Jun-18 20:33N 37°53' W 008°51'3 1.3
2016-Jun-18 18:11N 37°56' W 008°51'1 0.8
2016-Jun-18 17:33N 37°56' W 008°51'2 2.5
2016-Jun-18 16:34N 37°57' W 008°53'2 1.1
2016-Jun-18 14:33N 37°56' W 008°51'  
Track history (hours):
 
Tides and Currents Weather Stations Pressure Air Temp Water Temp Dewpoint Dewpoint Depression Visibility Wind Speed Wind Dir Waves Ship Positions

Atlantida Azul

Last reported at 2016-Jun-28 09:30 UTC. Time now 2016-Jun-28 09:44 UTC.
Position N 37°56' W 008°51'.

Length 16 m.

Type: Pilot. MMSI: 263672880.

Date/timePositionNaut miles runAvg speedWind from/ knotsBaromVisibWave heightAir tempDewpointWater temp
2016-Jun-28 09:30N 37°56' W 008°51'0 0.1
2016-Jun-28 04:31N 37°56' W 008°51'0 0.3
2016-Jun-28 03:32N 37°56' W 008°51'0 0.0
2016-Jun-28 01:19N 37°56' W 008°51'0 0.0
2016-Jun-28 00:25N 37°56' W 008°51'2 0.6
2016-Jun-27 20:33N 37°54' W 008°52'2 2.3
2016-Jun-27 19:33N 37°56' W 008°52'1 0.3
2016-Jun-27 17:30N 37°56' W 008°51'2 2.0
2016-Jun-27 16:32N 37°54' W 008°50'2 0.9
2016-Jun-27 14:07N 37°56' W 008°51'0 0.1
2016-Jun-27 10:33N 37°56' W 008°51'0 0.2
2016-Jun-27 09:14N 37°56' W 008°51'0 0.0
2016-Jun-27 08:24N 37°56' W 008°51'0 0.0
2016-Jun-26 22:17N 37°56' W 008°51'0 0.1
2016-Jun-26 20:33N 37°56' W 008°51'0 0.4
2016-Jun-26 19:32N 37°56' W 008°51'2 0.3
2016-Jun-26 11:32N 37°54' W 008°50'3 0.9
2016-Jun-26 08:14N 37°56' W 008°52'1 2.1
2016-Jun-26 07:33N 37°55' W 008°51'0 0.1
2016-Jun-26 02:33N 37°55' W 008°51'1 0.2
2016-Jun-25 20:04N 37°56' W 008°51'0 0.6
2016-Jun-25 19:33N 37°56' W 008°51'0 0.0
2016-Jun-25 11:19N 37°56' W 008°51'0 0.0
2016-Jun-25 10:33N 37°56' W 008°51'0 0.1
2016-Jun-25 02:33N 37°56' W 008°51'1 0.6
2016-Jun-25 01:32N 37°55' W 008°50'1 0.9
2016-Jun-25 00:31N 37°56' W 008°51'0 0.0
2016-Jun-24 17:05N 37°56' W 008°51'0 0.0
2016-Jun-24 10:21N 37°56' W 008°51'0 0.0
2016-Jun-23 16:30N 37°56' W 008°51'1 0.1
2016-Jun-23 01:04N 37°56' W 008°50'1 0.1
2016-Jun-22 12:27N 37°55' W 008°52'1 0.1
2016-Jun-21 22:08N 37°57' W 008°52'1 1.7
2016-Jun-21 21:33N 37°57' W 008°53'3 2.7
2016-Jun-21 20:32N 37°55' W 008°50'1 0.4
2016-Jun-21 17:31N 37°56' W 008°51'0 0.0
2016-Jun-21 13:19N 37°56' W 008°51'2 2.2
2016-Jun-21 12:32N 37°57' W 008°53'2 2.0
2016-Jun-21 11:33N 37°56' W 008°51'0 0.0
2016-Jun-20 22:33N 37°56' W 008°51'1 1.2
2016-Jun-20 21:33N 37°56' W 008°52'1 0.4
2016-Jun-20 18:32N 37°56' W 008°51'0 0.1
2016-Jun-20 16:19N 37°56' W 008°51'0 0.0
2016-Jun-20 15:32N 37°56' W 008°51'1 1.4
2016-Jun-20 14:31N 37°57' W 008°52'1 0.6
2016-Jun-20 12:04N 37°56' W 008°51'2 3.8
2016-Jun-20 11:33N 37°55' W 008°53'2 1.8
2016-Jun-20 10:31N 37°56' W 008°51'0 0.0
2016-Jun-20 04:18N 37°56' W 008°51'1 0.2
2016-Jun-20 01:06N 37°56' W 008°51'1 1.4
2016-Jun-20 00:33N 37°56' W 008°52'1 0.5
2016-Jun-19 23:33N 37°56' W 008°52'1 0.6
2016-Jun-19 22:33N 37°56' W 008°51'0 0.3
2016-Jun-19 21:33N 37°56' W 008°51'2 1.6
2016-Jun-19 20:32N 37°57' W 008°53'0 0.2
2016-Jun-19 18:33N 37°57' W 008°53'0 0.1
2016-Jun-19 17:32N 37°57' W 008°53'2 1.3
2016-Jun-19 16:11N 37°56' W 008°51'0 0.0
2016-Jun-19 11:20N 37°56' W 008°51'0 0.0
2016-Jun-19 10:33N 37°56' W 008°51'0 0.2
2016-Jun-19 09:30N 37°56' W 008°51'1 0.2
2016-Jun-19 03:33N 37°55' W 008°51'1 0.3
2016-Jun-18 23:33N 37°56' W 008°51'0 0.3
2016-Jun-18 22:33N 37°56' W 008°51'0 0.0
2016-Jun-18 21:32N 37°56' W 008°51'3 3.1
2016-Jun-18 20:33N 37°53' W 008°51'3 1.3
2016-Jun-18 18:11N 37°56' W 008°51'1 0.8
2016-Jun-18 17:33N 37°56' W 008°51'2 2.5
2016-Jun-18 16:34N 37°57' W 008°53'2 1.1
2016-Jun-18 14:33N 37°56' W 008°51'  

Dump ship's entire track history